createdAt,value
2018-05-26T04:00:41.192Z,512
2018-05-26T04:01:01.880Z,516
2018-05-26T04:01:22.585Z,520
2018-05-26T04:01:43.409Z,524
2018-05-26T04:02:04.216Z,524
2018-05-26T04:02:24.942Z,532
2018-05-26T04:02:45.571Z,532
2018-05-26T04:14:07.030Z,632
2018-05-26T04:14:27.781Z,636
2018-05-26T04:14:48.464Z,640
2018-05-26T04:15:09.260Z,640
2018-05-26T04:15:30.150Z,644
2018-05-26T04:15:50.983Z,644
2018-05-26T04:16:11.766Z,648
2018-05-26T04:23:13.734Z,700
2018-05-26T04:23:34.412Z,704
2018-05-26T04:26:11.271Z,724
2018-05-26T04:26:32.088Z,724
2018-05-26T04:28:45.051Z,740
2018-05-26T04:29:06.898Z,740
2018-05-26T04:31:44.984Z,756
2018-05-26T04:32:05.735Z,756
2018-05-26T04:32:26.505Z,756
2018-05-26T04:34:05.351Z,772
2018-05-26T04:38:54.683Z,800
2018-05-26T04:43:33.135Z,828
2018-05-26T04:45:13.234Z,832
2018-05-26T04:45:33.962Z,836
2018-05-26T04:47:48.227Z,844
2018-05-26T04:50:34.002Z,864
2018-05-26T04:52:13.361Z,872
2018-05-26T04:55:16.631Z,884
2018-05-26T04:55:38.636Z,884
2018-05-26T05:04:09.585Z,916
2018-05-26T05:05:26.641Z,920
2018-05-26T05:08:30.240Z,928
2018-05-26T05:08:50.884Z,928
2018-05-26T05:10:30.255Z,936
2018-05-26T05:14:33.875Z,940
2018-05-26T05:17:04.214Z,944
2018-05-26T05:25:01.602Z,956
2018-05-26T05:27:39.345Z,964
2018-05-26T05:28:00.089Z,964
2018-05-26T05:28:20.772Z,964
2018-05-26T05:28:41.777Z,964
2018-05-26T05:29:02.572Z,964
2018-05-26T05:30:28.507Z,968
2018-05-26T05:30:49.712Z,968
2018-05-26T05:31:48.310Z,972
2018-05-26T05:32:58.244Z,972
2018-05-26T05:33:19.316Z,972
2018-05-26T05:34:29.535Z,972
2018-05-26T05:34:51.481Z,972
2018-05-26T05:35:52.219Z,972
2018-05-26T05:36:13.138Z,972
2018-05-26T05:37:17.676Z,972
2018-05-26T05:37:38.451Z,976
2018-05-26T05:37:59.601Z,976
2018-05-26T05:38:20.502Z,976
2018-05-26T05:38:41.282Z,976
2018-05-26T05:39:02.297Z,972
2018-05-26T05:39:40.277Z,976
2018-05-26T05:40:01.239Z,976
2018-05-26T05:40:44.793Z,976
2018-05-26T05:41:05.841Z,976
2018-05-26T05:41:49.432Z,976
2018-05-26T05:42:10.234Z,980
2018-05-26T05:42:54.318Z,980
2018-05-26T05:43:15.149Z,976
2018-05-26T05:43:35.896Z,980
2018-05-26T05:43:56.781Z,980
2018-05-26T05:44:18.229Z,980
2018-05-26T05:44:39.377Z,980
2018-05-26T05:45:00.157Z,980
2018-05-26T05:45:21.029Z,980
2018-05-26T05:45:41.831Z,980
2018-05-26T05:46:03.383Z,984
2018-05-26T05:46:24.408Z,984
2018-05-26T05:46:45.436Z,980
2018-05-26T05:47:06.290Z,984
2018-05-26T05:47:26.934Z,984
2018-05-26T05:47:47.580Z,984
2018-05-26T05:48:08.376Z,980
2018-05-26T05:48:29.163Z,984
2018-05-26T05:48:50.103Z,984
2018-05-26T05:49:11.312Z,980
2018-05-26T05:49:31.950Z,980
2018-05-26T05:49:52.704Z,984
2018-05-26T05:50:13.511Z,984
2018-05-26T05:50:34.538Z,984
2018-05-26T05:50:55.528Z,984
2018-05-26T05:51:16.350Z,984
2018-05-26T05:51:37.558Z,984
2018-05-26T05:51:58.208Z,984
2018-05-26T05:52:19.191Z,984
2018-05-26T05:52:39.944Z,984
2018-05-26T05:53:00.699Z,984
2018-05-26T05:53:21.729Z,988
2018-05-26T05:53:42.700Z,984
2018-05-26T05:54:03.438Z,984
2018-05-26T05:54:24.553Z,984
2018-05-26T05:54:45.899Z,988
2018-05-26T05:55:06.708Z,988
2018-05-26T05:55:27.425Z,988
2018-05-26T05:55:48.261Z,988
2018-05-26T05:56:09.070Z,988
2018-05-26T05:56:29.975Z,988
2018-05-26T05:56:51.006Z,992
2018-05-26T05:57:12.295Z,988
2018-05-26T05:57:33.095Z,988
2018-05-26T05:57:53.939Z,988
2018-05-26T05:58:14.880Z,988
2018-05-26T05:58:35.785Z,988
2018-05-26T05:58:56.468Z,992
2018-05-26T05:59:17.361Z,992
2018-05-26T05:59:38.216Z,992
2018-05-26T05:59:59.064Z,992
2018-05-26T06:00:19.976Z,992
2018-05-26T06:01:00.358Z,992
2018-05-26T06:01:21.402Z,992
2018-05-26T06:01:42.118Z,992
2018-05-26T06:02:02.987Z,992
2018-05-26T06:02:24.031Z,992
2018-05-26T06:02:44.806Z,992
2018-05-26T06:03:05.846Z,996
2018-05-26T06:03:26.801Z,992
2018-05-26T06:03:47.903Z,996
2018-05-26T06:04:09.117Z,992
2018-05-26T06:04:30.342Z,992
2018-05-26T06:04:51.836Z,992
2018-05-26T06:05:13.923Z,992
2018-05-26T06:05:34.987Z,992
2018-05-26T06:05:56.215Z,992
2018-05-26T06:06:17.137Z,992
2018-05-26T06:06:37.929Z,992
2018-05-26T06:06:58.745Z,992
2018-05-26T06:07:19.573Z,996
2018-05-26T06:07:40.618Z,992
2018-05-26T06:08:01.847Z,996
2018-05-26T06:08:23.849Z,992
2018-05-26T06:08:44.728Z,996
2018-05-26T06:09:05.850Z,996
2018-05-26T06:09:27.261Z,996
2018-05-26T06:09:48.569Z,996
2018-05-26T06:10:12.291Z,996
2018-05-26T06:10:33.933Z,996
2018-05-26T06:10:55.608Z,1000
2018-05-26T06:11:16.679Z,996
2018-05-26T06:11:37.800Z,996
2018-05-26T06:11:59.783Z,1000
2018-05-26T06:12:21.629Z,1000
2018-05-26T06:12:43.313Z,1000
2018-05-26T06:13:05.016Z,1000
2018-05-26T06:13:26.434Z,1000
2018-05-26T06:13:47.471Z,1000
2018-05-26T06:14:09.073Z,1004
2018-05-26T06:14:30.134Z,1000
2018-05-26T06:14:51.487Z,1000
2018-05-26T06:15:12.738Z,1000
2018-05-26T06:15:34.645Z,996
2018-05-26T06:15:56.139Z,1000
2018-05-26T06:16:17.437Z,1000
2018-05-26T06:16:38.609Z,1000
2018-05-26T06:16:59.725Z,1000
2018-05-26T06:17:20.570Z,1000
2018-05-26T06:17:42.303Z,1000
2018-05-26T06:18:04.298Z,1000
2018-05-26T06:18:25.741Z,996
2018-05-26T06:18:47.047Z,1000
2018-05-26T06:19:08.718Z,1000
2018-05-26T06:19:29.510Z,1000
2018-05-26T06:19:50.955Z,1000
2018-05-26T06:20:11.924Z,1000
2018-05-26T06:20:32.954Z,1000
2018-05-26T06:20:54.110Z,1000
2018-05-26T06:21:15.123Z,1000
2018-05-26T06:21:35.995Z,1000
2018-05-26T06:21:57.303Z,996
2018-05-26T06:22:19.581Z,1000
2018-05-26T06:22:41.028Z,1000
2018-05-26T06:23:02.058Z,1000
2018-05-26T06:23:23.334Z,1000
2018-05-26T06:23:44.547Z,1000
2018-05-26T06:24:05.539Z,1000
2018-05-26T06:24:26.713Z,996
2018-05-26T06:24:47.950Z,1000
2018-05-26T06:25:08.886Z,1000
2018-05-26T06:25:30.340Z,1000
2018-05-26T06:25:52.364Z,1000
2018-05-26T06:26:14.372Z,1000
2018-05-26T06:26:35.769Z,1000
2018-05-26T06:26:56.729Z,1004
2018-05-26T06:27:17.801Z,1004
2018-05-26T06:27:38.650Z,1004
2018-05-26T06:28:00.352Z,1000
2018-05-26T06:28:22.472Z,1000
2018-05-26T06:28:43.367Z,1000
2018-05-26T06:29:04.537Z,1000
2018-05-26T06:29:26.593Z,1004
2018-05-26T06:29:47.492Z,1004
2018-05-26T06:30:08.594Z,1004
2018-05-26T06:30:29.644Z,1004
2018-05-26T06:30:50.731Z,1000
2018-05-26T06:31:11.604Z,1004
2018-05-26T06:31:32.827Z,1004
2018-05-26T06:31:54.170Z,1004
2018-05-26T06:32:16.308Z,1004
2018-05-26T06:32:37.185Z,1004
2018-05-26T06:32:58.754Z,1004
2018-05-26T06:33:20.161Z,1004
2018-05-26T06:33:41.051Z,1004
2018-05-26T06:34:03.171Z,1004
2018-05-26T06:34:24.258Z,1004
2018-05-26T06:34:44.924Z,1004
2018-05-26T06:35:06.078Z,1004
2018-05-26T06:35:27.214Z,1004
2018-05-26T06:35:48.413Z,1004
2018-05-26T06:36:09.374Z,1008
2018-05-26T06:36:30.450Z,1008
2018-05-26T06:36:51.418Z,1008
2018-05-26T06:37:12.715Z,1008
2018-05-26T06:37:34.017Z,1008
2018-05-26T06:37:55.466Z,1008
2018-05-26T06:38:16.929Z,1008
2018-05-26T06:38:38.011Z,1012
2018-05-26T06:38:59.389Z,1008
2018-05-26T06:39:20.910Z,1008
2018-05-26T06:39:42.093Z,1012
2018-05-26T06:40:02.968Z,1012
2018-05-26T06:40:24.127Z,1012
2018-05-26T06:40:46.944Z,1012
2018-05-26T06:41:08.227Z,1016
2018-05-26T06:41:29.387Z,1016
2018-05-26T06:41:50.364Z,1016
2018-05-26T06:42:30.753Z,1016
2018-05-26T06:42:55.132Z,1020
2018-05-26T06:43:16.121Z,1020
2018-05-26T06:43:37.552Z,1020
2018-05-26T06:43:58.283Z,1016
2018-05-26T06:44:19.460Z,1020
2018-05-26T06:44:40.174Z,1020
2018-05-26T06:45:00.930Z,1020
2018-05-26T06:45:21.947Z,1020
2018-05-26T06:45:47.219Z,1024
2018-05-26T06:46:07.862Z,1024
2018-05-26T06:46:28.735Z,1024
2018-05-26T06:46:49.788Z,1024
2018-05-26T06:47:10.656Z,1028
2018-05-26T06:47:31.798Z,1028
2018-05-26T06:47:52.808Z,1028
2018-05-26T06:48:14.101Z,1024
2018-05-26T06:48:35.185Z,1028
2018-05-26T06:48:56.294Z,1028
2018-05-26T06:49:16.946Z,1024
2018-05-26T06:49:37.929Z,1028
2018-05-26T06:49:58.815Z,1028
2018-05-26T06:50:19.667Z,1028
2018-05-26T06:50:40.400Z,1024
2018-05-26T06:51:01.208Z,1028
2018-05-26T06:51:22.213Z,1028
2018-05-26T06:51:43.198Z,1028
2018-05-26T06:52:04.105Z,1024
2018-05-26T06:52:24.849Z,1028
2018-05-26T06:52:45.664Z,1024
2018-05-26T06:53:06.097Z,1028
2018-05-26T06:53:26.632Z,1028
2018-05-26T06:53:47.833Z,1028
2018-05-26T06:54:08.482Z,1024
2018-05-26T06:54:29.307Z,1028
2018-05-26T06:54:50.138Z,1028
2018-05-26T06:55:10.846Z,1028
2018-05-26T06:55:31.618Z,1024
2018-05-26T06:55:52.710Z,1028
2018-05-26T06:56:13.658Z,1028
2018-05-26T06:56:34.526Z,1028
2018-05-26T06:56:55.503Z,1028
2018-05-26T06:57:16.168Z,1028
2018-05-26T06:57:36.681Z,1028
2018-05-26T06:57:57.965Z,1028
2018-05-26T06:58:19.028Z,1028
2018-05-26T06:58:39.785Z,1028
2018-05-26T06:59:00.530Z,1028
2018-05-26T06:59:21.747Z,1028
2018-05-26T06:59:42.927Z,1028
2018-05-26T07:00:04.199Z,1032
2018-05-26T07:00:25.169Z,1028
2018-05-26T07:00:46.926Z,1032
2018-05-26T07:01:08.411Z,1032
2018-05-26T07:01:29.569Z,1028
2018-05-26T07:01:50.553Z,1032
2018-05-26T07:02:11.718Z,1032
2018-05-26T07:02:32.358Z,1032
2018-05-26T07:02:53.519Z,1032
2018-05-26T07:03:14.372Z,1032
2018-05-26T07:03:35.425Z,1032
2018-05-26T07:03:56.577Z,1032
2018-05-26T07:04:17.553Z,1032
2018-05-26T07:04:39.485Z,1032
2018-05-26T07:05:01.942Z,1032
2018-05-26T07:05:23.185Z,1036
2018-05-26T07:05:44.242Z,1032
2018-05-26T07:06:05.044Z,1032
2018-05-26T07:06:25.911Z,1036
2018-05-26T07:06:47.097Z,1032
2018-05-26T07:07:08.589Z,1036
2018-05-26T07:07:30.022Z,1032
2018-05-26T07:07:51.425Z,1032
2018-05-26T07:08:12.794Z,1032
2018-05-26T07:08:34.343Z,1032
2018-05-26T07:08:55.625Z,1032
2018-05-26T07:09:17.225Z,1036
2018-05-26T07:09:38.941Z,1036
2018-05-26T07:10:00.116Z,1032
2018-05-26T07:10:21.709Z,1036
2018-05-26T07:10:43.211Z,1032
2018-05-26T07:11:04.071Z,1020
2018-05-26T07:11:25.249Z,1032
2018-05-26T07:11:46.152Z,1032
2018-05-26T07:12:07.240Z,1032
2018-05-26T07:12:28.097Z,1036
2018-05-26T07:12:49.167Z,1036
2018-05-26T07:13:10.777Z,1036
2018-05-26T07:13:32.566Z,1036
2018-05-26T07:13:53.745Z,1032
2018-05-26T07:14:15.004Z,1036
2018-05-26T07:14:36.157Z,1032
2018-05-26T07:14:58.466Z,1032
2018-05-26T07:15:20.486Z,1036
2018-05-26T07:15:41.594Z,1036
2018-05-26T07:16:02.612Z,1032
2018-05-26T07:16:23.247Z,1032
2018-05-26T07:16:44.119Z,1032
2018-05-26T07:17:05.664Z,1032
2018-05-26T07:17:26.813Z,1028
2018-05-26T07:18:07.173Z,1032
2018-05-26T07:18:27.982Z,1028
2018-05-26T07:18:49.268Z,1032
2018-05-26T07:19:10.362Z,1032
2018-05-26T07:19:31.969Z,1032
2018-05-26T07:19:52.984Z,1032
2018-05-26T07:20:14.310Z,1032
2018-05-26T07:20:35.353Z,1032
2018-05-26T07:20:56.847Z,1032
2018-05-26T07:21:19.346Z,1032
2018-05-26T07:21:40.306Z,1032
2018-05-26T07:22:01.159Z,1032
2018-05-26T07:22:21.758Z,1032
2018-05-26T07:22:42.669Z,1032
2018-05-26T07:23:03.653Z,1032
2018-05-26T07:23:24.848Z,1032
2018-05-26T07:23:46.007Z,1032
2018-05-26T07:24:07.149Z,1032
2018-05-26T07:24:28.951Z,1036
2018-05-26T07:24:50.928Z,1036
2018-05-26T07:25:12.614Z,1036
2018-05-26T07:25:33.895Z,1036
2018-05-26T07:25:55.321Z,1036
2018-05-26T07:26:16.453Z,1036
2018-05-26T07:26:37.431Z,1036
2018-05-26T07:26:59.453Z,1036
2018-05-26T07:27:20.702Z,1032
2018-05-26T07:27:42.212Z,1032
2018-05-26T07:28:03.224Z,1032
2018-05-26T07:28:23.963Z,1032
2018-05-26T07:28:44.837Z,1032
2018-05-26T07:29:06.405Z,1036
2018-05-26T07:29:28.284Z,1036
2018-05-26T07:29:52.206Z,1036
2018-05-26T07:30:12.886Z,1036
2018-05-26T07:30:33.674Z,1036
2018-05-26T07:30:54.883Z,1036
2018-05-26T07:31:16.029Z,1032
2018-05-26T07:31:37.071Z,1032
2018-05-26T07:31:57.984Z,1032
2018-05-26T07:32:19.984Z,1036
2018-05-26T07:32:41.872Z,1036
2018-05-26T07:33:03.065Z,1032
2018-05-26T07:33:23.804Z,1032
2018-05-26T07:33:44.772Z,1032
2018-05-26T07:34:06.993Z,1032
2018-05-26T07:34:28.307Z,1036
2018-05-26T07:34:49.152Z,1036
2018-05-26T07:35:10.122Z,1032
2018-05-26T07:35:31.566Z,1032
2018-05-26T07:35:52.606Z,1036
2018-05-26T07:36:13.501Z,1032
2018-05-26T07:36:34.596Z,1032
2018-05-26T07:36:55.443Z,1032
2018-05-26T07:37:16.342Z,1032
2018-05-26T07:37:37.411Z,1032
2018-05-26T07:37:58.359Z,1028
2018-05-26T07:38:19.357Z,1032
2018-05-26T07:38:40.288Z,1028
2018-05-26T07:39:01.143Z,1032
2018-05-26T07:39:22.129Z,1032
2018-05-26T07:39:43.238Z,1028
2018-05-26T07:40:04.410Z,1028
2018-05-26T07:40:25.485Z,1028
2018-05-26T07:40:46.696Z,1028
2018-05-26T07:41:07.559Z,1028
2018-05-26T07:41:28.412Z,1028
2018-05-26T07:41:49.290Z,1028
2018-05-26T07:42:10.406Z,1028
2018-05-26T07:42:31.471Z,1028
2018-05-26T07:42:52.478Z,1028
2018-05-26T07:43:14.306Z,1028
2018-05-26T07:43:35.275Z,1024
2018-05-26T07:43:56.079Z,1024
2018-05-26T07:44:16.653Z,1028
2018-05-26T07:44:38.421Z,1028
2018-05-26T07:45:01.382Z,1028
2018-05-26T07:45:22.718Z,1028
2018-05-26T07:45:43.766Z,1028
2018-05-26T07:46:04.676Z,1028
2018-05-26T07:46:25.794Z,1028
2018-05-26T07:46:46.535Z,1028
2018-05-26T07:47:07.341Z,1028
2018-05-26T07:47:28.132Z,1028
2018-05-26T07:47:49.087Z,1028
2018-05-26T07:48:10.029Z,1028
2018-05-26T07:48:31.002Z,1024
2018-05-26T07:48:52.011Z,1028
2018-05-26T07:49:13.625Z,1028
2018-05-26T07:49:34.465Z,1024
2018-05-26T07:49:55.437Z,1028
2018-05-26T07:50:15.986Z,1028
2018-05-26T07:50:36.584Z,1024
2018-05-26T07:50:57.400Z,1024
2018-05-26T07:51:18.503Z,1028
2018-05-26T07:51:39.109Z,1028
2018-05-26T07:51:59.847Z,1024
2018-05-26T07:52:20.436Z,1028
2018-05-26T07:52:41.134Z,1028
2018-05-26T07:53:01.968Z,1028
2018-05-26T07:53:23.085Z,1028
2018-05-26T07:53:45.934Z,1028
2018-05-26T07:54:06.746Z,1028
2018-05-26T07:54:27.296Z,1028
2018-05-26T07:54:47.979Z,1032
2018-05-26T07:55:08.538Z,1032
2018-05-26T07:55:29.375Z,1032
2018-05-26T07:55:49.986Z,1032
2018-05-26T07:56:11.439Z,1032
2018-05-26T07:56:32.303Z,1032
2018-05-26T07:56:53.004Z,1036
2018-05-26T07:57:13.629Z,1036
2018-05-26T07:57:34.299Z,1036
2018-05-26T07:57:55.279Z,1032
2018-05-26T07:58:16.014Z,1036
2018-05-26T07:58:36.756Z,1036
2018-05-26T07:58:57.454Z,1036
2018-05-26T07:59:18.229Z,1032
2018-05-26T07:59:38.978Z,1036
2018-05-26T07:59:59.762Z,1036
2018-05-26T08:00:20.429Z,1036
2018-05-26T08:00:41.105Z,1036
2018-05-26T08:01:01.923Z,1036
2018-05-26T08:01:22.655Z,1036
2018-05-26T08:01:43.683Z,1032
2018-05-26T08:02:04.491Z,1036
2018-05-26T08:02:25.262Z,1032
2018-05-26T08:02:46.054Z,1036
2018-05-26T08:03:06.927Z,1032
2018-05-26T08:03:27.808Z,1032
2018-05-26T08:03:48.619Z,1032
2018-05-26T08:04:09.476Z,1032
2018-05-26T08:04:30.187Z,1032
2018-05-26T08:04:51.068Z,1028
2018-05-26T08:05:11.864Z,1032
2018-05-26T08:05:32.559Z,1032
2018-05-26T08:05:53.482Z,1032
2018-05-26T08:06:14.201Z,1028
2018-05-26T08:06:36.600Z,1032
2018-05-26T08:06:57.527Z,1028
2018-05-26T08:07:18.179Z,1028
2018-05-26T08:07:39.619Z,1028
2018-05-26T08:08:00.436Z,1028
2018-05-26T08:08:21.147Z,1032
2018-05-26T08:08:42.108Z,1032
2018-05-26T08:09:02.679Z,1032
2018-05-26T08:09:23.494Z,1032
2018-05-26T08:09:45.398Z,1032
2018-05-26T08:10:06.099Z,1028
2018-05-26T08:10:26.899Z,1032
2018-05-26T08:10:47.700Z,1028
2018-05-26T08:11:08.592Z,1032
2018-05-26T08:11:29.201Z,1032
2018-05-26T08:11:50.535Z,1032
2018-05-26T08:12:12.060Z,1032
2018-05-26T08:12:32.706Z,1032
2018-05-26T08:12:53.469Z,1036
2018-05-26T08:13:14.263Z,1032
2018-05-26T08:13:35.001Z,1032
2018-05-26T08:13:56.015Z,1036
2018-05-26T08:14:17.008Z,1032
2018-05-26T08:14:37.863Z,1032
2018-05-26T08:14:58.887Z,1032
2018-05-26T08:15:19.552Z,1032
2018-05-26T08:15:40.169Z,1032
2018-05-26T08:16:00.734Z,1036
2018-05-26T08:16:21.346Z,1036
2018-05-26T08:16:42.441Z,1032
2018-05-26T08:17:03.534Z,1036
2018-05-26T08:17:24.458Z,1032
2018-05-26T08:17:45.647Z,1036
2018-05-26T08:18:06.793Z,1032
2018-05-26T08:18:27.695Z,1032
2018-05-26T08:18:48.611Z,1032
2018-05-26T08:19:09.656Z,1032
2018-05-26T08:19:30.477Z,1032
2018-05-26T08:19:51.074Z,1028
2018-05-26T08:20:11.700Z,1032
2018-05-26T08:20:32.393Z,1032
2018-05-26T08:20:52.952Z,1032
2018-05-26T08:21:13.640Z,1032
2018-05-26T08:21:34.257Z,1032
2018-05-26T08:21:56.386Z,1036
2018-05-26T08:22:17.535Z,1036
2018-05-26T08:22:38.289Z,1032
2018-05-26T08:22:59.407Z,1032
2018-05-26T08:23:20.664Z,1036
2018-05-26T08:23:42.162Z,1032
2018-05-26T08:24:03.016Z,1036
2018-05-26T08:24:23.846Z,1032
2018-05-26T08:24:44.663Z,1032
2018-05-26T08:25:05.850Z,1032
2018-05-26T08:25:26.783Z,1028
2018-05-26T08:25:47.787Z,1032
2018-05-26T08:26:08.618Z,1028
2018-05-26T08:26:29.929Z,1032
2018-05-26T08:26:50.870Z,1032
2018-05-26T08:27:12.721Z,1032
2018-05-26T08:27:33.323Z,1028
2018-05-26T08:27:53.906Z,1028
2018-05-26T08:28:14.850Z,1028
2018-05-26T08:28:35.688Z,1028
2018-05-26T08:28:56.512Z,1028
2018-05-26T08:29:17.140Z,1032
2018-05-26T08:29:37.648Z,1032
2018-05-26T08:29:58.578Z,1032
2018-05-26T08:30:19.334Z,1032
2018-05-26T08:30:41.000Z,1036
2018-05-26T08:31:02.000Z,1032
2018-05-26T08:31:22.702Z,1032
2018-05-26T08:31:43.327Z,1032
2018-05-26T08:32:04.085Z,1036
2018-05-26T08:32:24.939Z,1032
2018-05-26T08:32:45.725Z,1036
2018-05-26T08:33:06.358Z,1036
2018-05-26T08:33:27.233Z,1036
2018-05-26T08:33:48.230Z,1032
2018-05-26T08:34:09.132Z,1032
2018-05-26T08:34:30.053Z,1036
2018-05-26T08:34:50.879Z,1032
2018-05-26T08:35:11.932Z,1032
2018-05-26T08:35:32.893Z,1032
2018-05-26T08:35:53.527Z,1032
2018-05-26T08:36:14.296Z,1032
2018-05-26T08:36:35.669Z,1032
2018-05-26T08:36:56.512Z,1032
2018-05-26T08:37:17.591Z,1032
2018-05-26T08:37:38.700Z,1032
2018-05-26T08:37:59.708Z,1032
2018-05-26T08:38:20.560Z,1036
2018-05-26T08:38:42.247Z,1032
2018-05-26T08:39:03.062Z,1036
2018-05-26T08:39:23.918Z,1036
2018-05-26T08:39:44.729Z,1036
2018-05-26T08:40:05.614Z,1036
2018-05-26T08:40:26.524Z,1036
2018-05-26T08:40:47.512Z,1036
2018-05-26T08:41:08.640Z,1036
2018-05-26T08:41:29.767Z,1032
2018-05-26T08:41:50.622Z,1036
2018-05-26T08:42:11.368Z,1032
2018-05-26T08:42:32.447Z,1032
2018-05-26T08:42:53.063Z,1032
2018-05-26T08:43:14.045Z,1032
2018-05-26T08:43:34.861Z,1032
2018-05-26T08:43:55.951Z,1036
2018-05-26T08:44:16.706Z,1032
2018-05-26T08:44:37.561Z,1032
2018-05-26T08:44:58.434Z,1036
2018-05-26T08:45:19.519Z,1032
2018-05-26T08:45:40.179Z,1032
2018-05-26T08:46:00.773Z,1032
2018-05-26T08:46:21.603Z,1032
2018-05-26T08:46:42.391Z,1036
2018-05-26T08:47:03.188Z,1032
2018-05-26T08:47:23.885Z,1032
2018-05-26T08:47:44.458Z,1032
2018-05-26T08:48:05.212Z,1036
2018-05-26T08:48:26.046Z,1032
2018-05-26T08:48:46.890Z,1032
2018-05-26T08:49:07.548Z,1036
2018-05-26T08:49:28.280Z,1036
2018-05-26T08:49:49.214Z,1036
2018-05-26T08:50:10.079Z,1036
2018-05-26T08:50:30.742Z,1036
2018-05-26T08:50:51.426Z,1036
2018-05-26T08:51:11.993Z,1036
2018-05-26T08:51:32.933Z,1032
2018-05-26T08:51:53.745Z,1036
2018-05-26T08:52:14.587Z,1036
2018-05-26T08:52:35.532Z,1036
2018-05-26T08:52:56.071Z,1036
2018-05-26T08:53:16.714Z,1040
2018-05-26T08:53:37.543Z,1040
2018-05-26T08:53:58.852Z,1040
2018-05-26T08:54:19.584Z,1040
2018-05-26T08:54:41.285Z,1040
2018-05-26T08:55:02.191Z,1040
2018-05-26T08:55:23.058Z,1040
2018-05-26T08:55:43.761Z,1040
2018-05-26T08:56:05.588Z,1044
2018-05-26T08:56:26.536Z,1044
2018-05-26T08:56:47.235Z,1052
2018-05-26T08:57:08.236Z,1064
2018-05-26T08:57:29.022Z,1068
2018-05-26T08:57:49.933Z,1080
2018-05-26T08:58:10.576Z,1080
2018-05-26T08:58:31.520Z,1088
2018-05-26T08:58:52.186Z,1088
2018-05-26T08:59:12.863Z,1092
2018-05-26T08:59:33.689Z,1100
2018-05-26T08:59:54.409Z,1096
2018-05-26T09:00:15.319Z,1092
2018-05-26T09:00:35.937Z,1092
2018-05-26T09:00:56.722Z,1088
2018-05-26T09:01:17.476Z,1080
2018-05-26T09:01:38.082Z,1076
2018-05-26T09:01:58.685Z,1068
2018-05-26T09:02:19.800Z,1060
2018-05-26T09:02:40.582Z,1060
2018-05-26T09:03:01.402Z,1052
2018-05-26T09:03:22.460Z,1048
2018-05-26T09:03:43.436Z,1048
2018-05-26T09:04:04.216Z,1048
2018-05-26T09:04:25.716Z,1048
2018-05-26T09:04:48.803Z,1044
2018-05-26T09:05:10.186Z,1044
2018-05-26T09:05:31.030Z,1040
2018-05-26T09:05:51.841Z,1044
2018-05-26T09:06:12.769Z,1044
2018-05-26T09:06:33.228Z,1044
2018-05-26T09:06:55.035Z,1044
2018-05-26T09:07:15.870Z,1048
2018-05-26T09:07:36.810Z,1044
2018-05-26T09:07:57.682Z,1044
2018-05-26T09:08:18.523Z,1040
2018-05-26T09:08:39.115Z,1040
2018-05-26T09:08:59.717Z,1040
2018-05-26T09:09:20.994Z,1044
2018-05-26T09:09:41.467Z,1040
2018-05-26T09:10:01.961Z,1036
2018-05-26T09:10:22.702Z,1036
2018-05-26T09:10:43.445Z,1036
2018-05-26T09:11:04.477Z,1036
2018-05-26T09:11:25.685Z,1032
2018-05-26T09:11:49.078Z,1032
2018-05-26T09:12:10.254Z,1032
2018-05-26T09:12:31.106Z,1032
2018-05-26T09:12:51.837Z,1028
2018-05-26T09:13:12.325Z,1028
2018-05-26T09:13:32.623Z,1028
2018-05-26T09:13:53.197Z,1024
2018-05-26T09:14:13.859Z,1028
2018-05-26T09:14:34.402Z,1024
2018-05-26T09:14:55.216Z,1024
2018-05-26T09:15:16.225Z,1028
2018-05-26T09:15:37.079Z,1024
2018-05-26T09:15:57.699Z,1028
2018-05-26T09:16:18.373Z,1024
2018-05-26T09:16:39.067Z,1020
2018-05-26T09:16:59.722Z,1024
2018-05-26T09:17:20.387Z,1024
2018-05-26T09:17:41.075Z,1028
2018-05-26T09:18:02.040Z,1032
2018-05-26T09:18:25.660Z,1032
2018-05-26T09:18:47.021Z,1032
2018-05-26T09:19:07.539Z,1032
2018-05-26T09:19:28.503Z,1032
2018-05-26T09:19:49.479Z,1040
2018-05-26T09:20:09.994Z,1036
2018-05-26T09:20:30.612Z,1036
2018-05-26T09:20:51.324Z,1040
2018-05-26T09:21:11.824Z,1040
2018-05-26T09:21:32.639Z,1040
2018-05-26T09:21:53.515Z,1040
2018-05-26T09:22:14.057Z,1040
2018-05-26T09:22:34.773Z,1040
2018-05-26T09:22:55.173Z,1048
2018-05-26T09:23:15.492Z,1048
2018-05-26T09:23:36.074Z,1048
2018-05-26T09:23:56.632Z,1052
2018-05-26T09:24:17.022Z,1056
2018-05-26T09:24:37.636Z,1056
2018-05-26T09:24:58.090Z,1060
2018-05-26T09:25:18.935Z,1060
2018-05-26T09:25:39.473Z,1064
2018-05-26T09:26:00.960Z,1068
2018-05-26T09:26:21.289Z,1072
2018-05-26T09:26:41.588Z,1076
2018-05-26T09:27:02.133Z,1080
2018-05-26T09:27:22.594Z,1088
2018-05-26T09:27:42.931Z,1096
2018-05-26T09:28:03.211Z,1100
2018-05-26T09:28:23.982Z,1112
2018-05-26T09:28:44.543Z,1116
2018-05-26T09:29:05.067Z,1128
2018-05-26T09:29:25.578Z,1136
2018-05-26T09:29:46.001Z,1148
2018-05-26T09:30:06.874Z,1156
2018-05-26T09:30:27.378Z,1176
2018-05-26T09:30:49.586Z,1204
2018-05-26T09:31:10.170Z,1228
2018-05-26T09:31:30.840Z,1260
2018-05-26T09:31:51.620Z,1284
2018-05-26T09:32:12.410Z,1288
2018-05-26T09:32:32.972Z,1280
2018-05-26T09:32:53.913Z,1264
2018-05-26T09:33:14.791Z,1252
2018-05-26T09:33:35.565Z,1244
2018-05-26T09:33:56.320Z,1248
2018-05-26T09:34:17.201Z,1252
2018-05-26T09:34:37.501Z,1260
2018-05-26T09:34:58.751Z,1260
2018-05-26T09:35:19.366Z,1260
2018-05-26T09:35:40.131Z,1264
2018-05-26T09:36:01.571Z,1272
2018-05-26T09:36:22.358Z,1280
2018-05-26T09:36:43.172Z,1288
2018-05-26T09:37:03.622Z,1312
2018-05-26T09:37:24.085Z,1332
2018-05-26T09:37:44.960Z,1348
2018-05-26T09:38:06.343Z,1368
2018-05-26T09:38:27.687Z,1392
2018-05-26T09:38:48.517Z,1404
2018-05-26T09:39:28.694Z,1428
2018-05-26T09:39:50.067Z,1404
2018-05-26T09:40:10.855Z,1448
2018-05-26T09:40:31.195Z,1448
2018-05-26T09:40:52.078Z,1376
2018-05-26T09:41:12.593Z,1432
2018-05-26T09:41:34.107Z,1344
2018-05-26T09:41:55.082Z,1324
2018-05-26T09:42:15.706Z,1328
2018-05-26T09:42:36.488Z,1324
2018-05-26T09:42:58.024Z,1316
2018-05-26T09:43:18.372Z,1312
2018-05-26T09:43:39.229Z,1320
2018-05-26T09:44:00.270Z,1380
2018-05-26T09:44:23.051Z,1416
2018-05-26T09:44:43.944Z,1396
2018-05-26T09:45:04.876Z,1404
2018-05-26T09:45:25.648Z,1408
2018-05-26T09:45:46.242Z,1416
2018-05-26T09:46:06.645Z,1420
2018-05-26T09:46:26.909Z,1436
2018-05-26T09:46:47.227Z,1464
2018-05-26T09:47:07.503Z,1484
2018-05-26T09:47:27.759Z,1508
2018-05-26T09:47:48.408Z,1532
2018-05-26T09:48:08.604Z,1536
2018-05-26T09:48:29.202Z,1544
2018-05-26T09:48:50.123Z,1548
2018-05-26T09:49:11.023Z,1560
2018-05-26T09:49:32.261Z,1564
2018-05-26T09:49:53.526Z,1568
2018-05-26T09:50:14.071Z,1576
2018-05-26T09:50:34.415Z,1580
2018-05-26T09:50:54.892Z,1596
2018-05-26T09:51:15.156Z,1612
2018-05-26T09:51:35.370Z,1624
2018-05-26T09:51:55.631Z,1640
2018-05-26T09:52:16.163Z,1656
2018-05-26T09:52:37.136Z,1656
2018-05-26T09:52:58.052Z,1648
2018-05-26T09:53:18.786Z,1652
2018-05-26T09:53:39.239Z,1660
2018-05-26T09:53:59.524Z,1664
2018-05-26T09:54:19.927Z,1664
2018-05-26T09:54:40.451Z,1668
2018-05-26T09:55:01.037Z,1668
2018-05-26T09:55:22.080Z,1672
2018-05-26T09:55:42.844Z,1696
2018-05-26T09:56:03.760Z,1720
2018-05-26T09:56:24.803Z,1728
2018-05-26T09:56:45.565Z,1744
2018-05-26T09:57:06.172Z,1776
2018-05-26T09:57:26.735Z,1796
2018-05-26T09:57:47.773Z,1796
2018-05-26T09:58:08.727Z,1800
2018-05-26T09:58:29.326Z,1816
2018-05-26T09:58:50.498Z,1836
2018-05-26T09:59:11.445Z,1884
2018-05-26T09:59:32.035Z,1924
2018-05-26T09:59:52.411Z,1968
2018-05-26T10:00:12.980Z,2012
2018-05-26T10:00:33.842Z,2044
2018-05-26T10:00:54.791Z,2068
2018-05-26T10:01:15.714Z,2076
2018-05-26T10:01:36.132Z,2080
2018-05-26T10:01:56.478Z,2084